Aeroporto :
LOGIN :

Iscrizione | Disclaimer

   EN    FR    IT 

 










Sommario :    VFR   VFR Marginale   IFR   IFR Intensivo   IFR Molto Intensivo
Visibilità : 
Base nubi : 
>= 8 km
>= 3000ft
5 / 8 km
1000 / 3000 ft
1500m / 5 km
500 / 1000 ft
800 / 1500m
200 / 500 ft
< 800m
< 200 ft
Simboli :   Temporali  Nebbia  Neve Forte  Precipitazioni Forti  Vento > 20 kt
SIGMETs :   Varie  Temporali  Ghiacco  Turbolenza  Onda orograficha  Ceneri Vulcaniche






- Altitudine del aeroporto : 609 ft
- Codice IATA : BJZ


LEBZ - Badajoz

ULTIMO METAR :
  • 171600Z 27006KT 9999 SCT036 17/13 Q1028

METARs OBSOLETI :
  • 171500Z 29008KT 260V320 9999 FEW019 BKN023 17/13 Q1029
  • 171400Z 28006KT 240V310 9999 FEW012 BKN018 17/14 Q1029
  • 171347Z 28007KT 250V310 9999 SCT012 BKN017 16/14 Q1029

TAF AMD TAF LEBZ
Valido dal 17 a 13 ore il 18 a 12 ore UTC


171312Z 1713/1812 24004KT 9000 SCT015 BKN030 TX18/1715Z TN05/1807Z
TEMPO 1713/1718 BKN010
TEMPO 1800/1810 3000 BR BKN010
PROB40
TEMPO 1804/1809 0500 FG VV001



MetMap, La meteo Aeronautica in un colpo d'occhio ! - Copyright ORBIFLY Dicembre 2007 - Disclaimer

ORBIFLY MET'MAP TEAM :

Programmazione e sviluppo : Alexandra Zaïnal
Concezione : Baudouin d'Aumeries
Aiuto per la programmazione : Marc-Olivier Méhu
Supporto tecnico e logistico : Manuel Goepfert
Aiuto per la traduzione : Arnaldo La Scala

Contatto : metmap@orbifly.com




FONTI E CREDITI :

   NOAA